createdAt,value
2018-06-28T00:00:53.988Z,3.30
2018-06-28T00:01:53.969Z,2.60
2018-06-28T00:02:53.977Z,3.10
2018-06-28T00:03:53.948Z,3.50
2018-06-28T00:04:53.940Z,4.00
2018-06-28T00:05:53.936Z,3.30
2018-06-28T00:06:53.913Z,2.60
2018-06-28T00:07:53.927Z,2.80
2018-06-28T00:08:53.978Z,4.60
2018-06-28T00:09:53.880Z,2.80
2018-06-28T00:10:53.866Z,3.60
2018-06-28T00:11:53.860Z,3.00
2018-06-28T00:12:53.858Z,4.60
2018-06-28T00:13:53.844Z,3.00
2018-06-28T00:14:53.816Z,2.80
2018-06-28T00:15:53.809Z,2.90
2018-06-28T00:16:53.816Z,3.90
2018-06-28T00:17:53.795Z,2.90
2018-06-28T00:18:53.778Z,2.80
2018-06-28T00:19:53.765Z,2.70
2018-06-28T00:20:53.748Z,3.00
2018-06-28T00:21:53.751Z,2.30
2018-06-28T00:22:53.725Z,3.10
2018-06-28T00:23:53.711Z,3.50
2018-06-28T00:24:53.716Z,4.30
2018-06-28T00:25:53.687Z,2.60
2018-06-28T00:26:53.674Z,2.80
2018-06-28T00:27:53.685Z,3.10
2018-06-28T00:28:53.663Z,4.20
2018-06-28T00:29:53.651Z,2.60
2018-06-28T00:30:53.644Z,3.80
2018-06-28T00:31:53.616Z,3.80
2018-06-28T00:32:53.605Z,3.50
2018-06-28T00:33:53.610Z,3.30
2018-06-28T00:34:53.591Z,4.30
2018-06-28T00:35:53.564Z,4.50
2018-06-28T00:36:53.556Z,3.40
2018-06-28T00:37:53.548Z,2.00
2018-06-28T00:38:53.549Z,3.10
2018-06-28T00:39:53.520Z,2.30
2018-06-28T00:40:53.525Z,2.80
2018-06-28T00:41:53.491Z,3.00
2018-06-28T00:42:53.487Z,3.10
2018-06-28T00:43:53.474Z,4.00
2018-06-28T00:44:53.471Z,3.50
2018-06-28T00:45:53.469Z,4.40
2018-06-28T00:46:53.434Z,5.20
2018-06-28T00:47:53.420Z,3.50
2018-06-28T00:48:53.451Z,3.50
2018-06-28T00:49:53.418Z,4.50
2018-06-28T00:50:53.386Z,2.80
2018-06-28T00:51:53.393Z,3.80
2018-06-28T00:52:53.373Z,4.10
2018-06-28T00:53:53.350Z,4.20
2018-06-28T00:54:53.340Z,2.40
2018-06-28T00:55:53.347Z,3.30
2018-06-28T00:56:53.315Z,3.90
2018-06-28T00:57:53.312Z,4.90
2018-06-28T00:58:53.286Z,2.60
2018-06-28T00:59:53.273Z,4.30
2018-06-28T01:00:53.283Z,4.90
2018-06-28T01:01:53.279Z,4.70
2018-06-28T01:02:53.254Z,5.10
2018-06-28T01:03:53.225Z,3.20
2018-06-28T01:04:53.217Z,3.90
2018-06-28T01:05:53.220Z,4.00
2018-06-28T01:06:53.188Z,2.60
2018-06-28T01:07:53.182Z,3.70
2018-06-28T01:08:53.164Z,3.60
2018-06-28T01:09:53.163Z,6.30
2018-06-28T01:10:53.158Z,3.60
2018-06-28T01:11:53.141Z,5.00
2018-06-28T01:12:53.116Z,4.20
2018-06-28T01:13:53.105Z,4.80
2018-06-28T01:14:53.092Z,3.80
2018-06-28T01:15:53.088Z,3.80
2018-06-28T01:16:53.083Z,3.30
2018-06-28T01:17:53.070Z,2.40
2018-06-28T01:18:53.039Z,5.10
2018-06-28T01:19:53.027Z,4.20
2018-06-28T01:20:53.035Z,3.70
2018-06-28T01:21:53.019Z,3.10
2018-06-28T01:22:53.011Z,4.60
2018-06-28T01:23:52.975Z,3.20
2018-06-28T01:24:52.968Z,2.90
2018-06-28T01:25:52.951Z,4.50
2018-06-28T01:26:52.939Z,3.00
2018-06-28T01:27:52.945Z,3.10
2018-06-28T01:28:52.922Z,4.10
2018-06-28T01:29:52.904Z,4.60
2018-06-28T01:30:52.896Z,4.40
2018-06-28T01:31:52.881Z,3.90
2018-06-28T01:32:52.883Z,3.10
2018-06-28T01:33:52.857Z,4.80
2018-06-28T01:34:52.843Z,6.30
2018-06-28T01:35:52.838Z,7.50
2018-06-28T01:36:52.814Z,4.70
2018-06-28T01:37:52.802Z,3.80
2018-06-28T01:38:52.814Z,3.60
2018-06-28T01:39:52.781Z,3.70
2018-06-28T01:40:52.765Z,4.30
2018-06-28T01:41:52.809Z,4.30
2018-06-28T01:42:52.745Z,3.00
2018-06-28T01:43:52.746Z,3.80
2018-06-28T01:44:52.714Z,3.40
2018-06-28T01:45:52.700Z,2.20
2018-06-28T01:46:52.770Z,2.70
2018-06-28T01:47:52.672Z,2.20
2018-06-28T01:48:52.681Z,2.10
2018-06-28T01:49:52.650Z,4.70
2018-06-28T01:50:52.656Z,2.90
2018-06-28T01:51:52.623Z,2.40
2018-06-28T01:52:52.617Z,4.70
2018-06-28T01:53:52.600Z,2.50
2018-06-28T01:54:52.590Z,2.30
2018-06-28T01:55:52.597Z,2.60
2018-06-28T01:56:52.563Z,5.00
2018-06-28T01:57:52.545Z,2.20
2018-06-28T01:58:52.537Z,3.70
2018-06-28T01:59:52.522Z,2.60
2018-06-28T02:00:52.521Z,6.30
2018-06-28T02:01:52.513Z,2.30
2018-06-28T02:02:52.498Z,3.10
2018-06-28T02:03:52.486Z,3.30
2018-06-28T02:04:52.461Z,2.90
2018-06-28T02:05:52.454Z,4.00
2018-06-28T02:06:52.449Z,5.10
2018-06-28T02:07:52.420Z,3.30
2018-06-28T02:08:52.425Z,3.00
2018-06-28T02:09:52.391Z,3.20
2018-06-28T02:10:52.384Z,2.90
2018-06-28T02:11:52.391Z,3.30
2018-06-28T02:12:52.361Z,3.70
2018-06-28T02:13:52.350Z,4.60
2018-06-28T02:14:52.333Z,2.50
2018-06-28T02:15:52.326Z,3.70
2018-06-28T02:16:52.320Z,3.10
2018-06-28T02:17:52.294Z,2.80
2018-06-28T02:18:52.273Z,4.10
2018-06-28T02:19:52.263Z,3.60
2018-06-28T02:20:52.255Z,3.40
2018-06-28T02:21:52.261Z,3.80
2018-06-28T02:22:52.234Z,3.30
2018-06-28T02:23:52.209Z,5.10
2018-06-28T02:24:52.196Z,3.70
2018-06-28T02:25:52.190Z,2.80
2018-06-28T02:26:52.192Z,4.50
2018-06-28T02:28:13.170Z,3.10
2018-06-28T02:28:52.148Z,3.80
2018-06-28T02:29:52.132Z,2.70
2018-06-28T02:30:52.123Z,3.60
2018-06-28T02:31:52.106Z,3.10
2018-06-28T02:32:52.099Z,3.20
2018-06-28T02:33:52.096Z,4.30
2018-06-28T02:34:52.072Z,3.60
2018-06-28T02:35:52.071Z,5.60
2018-06-28T02:36:52.055Z,4.60
2018-06-28T02:37:52.027Z,4.80
2018-06-28T02:38:52.040Z,3.00
2018-06-28T02:39:52.003Z,3.50
2018-06-28T02:40:52.004Z,4.70
2018-06-28T02:41:51.989Z,3.90
2018-06-28T02:42:51.963Z,3.10
2018-06-28T02:43:51.965Z,2.90
2018-06-28T02:44:51.938Z,4.80
2018-06-28T02:45:51.934Z,4.80
2018-06-28T02:46:51.914Z,4.20
2018-06-28T02:47:51.896Z,5.30
2018-06-28T02:48:51.901Z,3.70
2018-06-28T02:49:51.871Z,5.60
2018-06-28T02:50:51.862Z,4.20
2018-06-28T02:51:51.847Z,5.10
2018-06-28T02:52:51.833Z,6.10
2018-06-28T02:53:51.823Z,5.10
2018-06-28T02:54:51.822Z,4.50
2018-06-28T02:55:51.809Z,4.50
2018-06-28T02:56:51.796Z,5.40
2018-06-28T02:57:51.784Z,5.60
2018-06-28T02:58:51.754Z,3.70
2018-06-28T02:59:51.747Z,3.60
2018-06-28T03:00:51.734Z,3.70
2018-06-28T03:01:51.738Z,5.30
2018-06-28T03:02:51.704Z,3.60
2018-06-28T03:03:51.691Z,2.80
2018-06-28T03:04:51.680Z,3.70
2018-06-28T03:05:51.671Z,3.20
2018-06-28T03:06:51.673Z,4.40
2018-06-28T03:07:51.640Z,4.20
2018-06-28T03:08:51.624Z,3.40
2018-06-28T03:09:51.618Z,4.40
2018-06-28T03:10:51.602Z,5.80
2018-06-28T03:11:51.604Z,3.70
2018-06-28T03:12:51.591Z,6.00
2018-06-28T03:13:51.557Z,4.10
2018-06-28T03:14:51.546Z,4.90
2018-06-28T03:15:51.548Z,4.00
2018-06-28T03:16:51.544Z,4.90
2018-06-28T03:17:51.525Z,4.40
2018-06-28T03:18:51.496Z,3.00
2018-06-28T03:19:51.489Z,4.70
2018-06-28T03:20:51.489Z,3.40
2018-06-28T03:21:51.466Z,4.50
2018-06-28T03:22:51.456Z,3.30
2018-06-28T03:23:51.429Z,4.20
2018-06-28T03:24:51.415Z,3.80
2018-06-28T03:25:51.398Z,5.00
2018-06-28T03:26:51.385Z,4.60
2018-06-28T03:27:51.389Z,4.40
2018-06-28T03:28:51.366Z,3.20
2018-06-28T03:29:51.353Z,4.70
2018-06-28T03:30:51.351Z,6.30
2018-06-28T03:31:51.331Z,3.80
2018-06-28T03:32:51.311Z,4.30
2018-06-28T03:33:51.312Z,3.70
2018-06-28T03:34:51.299Z,4.40
2018-06-28T03:35:51.265Z,4.50
2018-06-28T03:36:51.257Z,6.00
2018-06-28T03:37:51.307Z,3.20
2018-06-28T03:38:51.244Z,5.30
2018-06-28T03:39:51.213Z,5.80
2018-06-28T03:40:51.200Z,3.60
2018-06-28T03:41:51.188Z,5.20
2018-06-28T03:42:51.179Z,5.30
2018-06-28T03:43:51.157Z,4.50
2018-06-28T03:44:51.169Z,3.80
2018-06-28T03:45:51.149Z,5.70
2018-06-28T03:46:51.136Z,5.10
2018-06-28T03:47:51.106Z,4.20
2018-06-28T03:48:51.093Z,5.00
2018-06-28T03:49:51.102Z,5.40
2018-06-28T03:50:51.065Z,5.20
2018-06-28T03:51:51.059Z,4.40
2018-06-28T03:52:51.036Z,3.60
2018-06-28T03:53:51.047Z,5.40
2018-06-28T03:54:51.014Z,3.90
2018-06-28T03:55:51.022Z,4.70
2018-06-28T03:56:50.999Z,5.50
2018-06-28T03:57:50.976Z,4.60
2018-06-28T03:58:50.973Z,4.80
2018-06-28T03:59:50.947Z,5.50
2018-06-28T04:01:11.947Z,4.80
2018-06-28T04:01:50.925Z,6.10
2018-06-28T04:02:50.915Z,5.10
2018-06-28T04:03:50.896Z,4.30
2018-06-28T04:04:50.878Z,5.20
2018-06-28T04:05:50.867Z,5.00
2018-06-28T04:06:50.874Z,5.90
2018-06-28T04:07:50.846Z,5.40
2018-06-28T04:08:50.841Z,5.20
2018-06-28T04:09:50.811Z,5.70
2018-06-28T04:10:50.807Z,3.80
2018-06-28T04:11:50.806Z,5.10
2018-06-28T04:12:50.775Z,4.40
2018-06-28T04:13:50.765Z,4.70
2018-06-28T04:14:50.751Z,5.60
2018-06-28T04:15:50.734Z,4.00
2018-06-28T04:16:50.742Z,4.60
2018-06-28T04:17:50.708Z,4.60
2018-06-28T04:18:50.695Z,4.40
2018-06-28T04:19:50.693Z,3.90
2018-06-28T04:20:50.667Z,6.00
2018-06-28T04:21:50.678Z,4.90
2018-06-28T04:22:50.663Z,6.90
2018-06-28T04:23:50.634Z,7.90
2018-06-28T04:24:50.617Z,5.20
2018-06-28T04:25:50.612Z,6.20
2018-06-28T04:26:50.601Z,5.40
2018-06-28T04:27:50.588Z,5.60
2018-06-28T04:28:50.561Z,5.70
2018-06-28T04:29:50.559Z,5.00
2018-06-28T04:30:50.542Z,5.40
2018-06-28T04:31:50.523Z,5.40
2018-06-28T04:32:50.543Z,5.40
2018-06-28T04:33:50.500Z,3.70
2018-06-28T04:34:50.486Z,5.00
2018-06-28T04:35:50.475Z,4.50
2018-06-28T04:36:50.456Z,4.50
2018-06-28T04:37:50.455Z,4.70
2018-06-28T04:38:50.447Z,4.70
2018-06-28T04:39:50.415Z,6.10
2018-06-28T04:40:50.421Z,6.60
2018-06-28T04:41:50.392Z,6.30
2018-06-28T04:42:50.390Z,5.80
2018-06-28T04:43:50.368Z,6.10
2018-06-28T04:44:50.371Z,5.70
2018-06-28T04:45:50.348Z,4.70
2018-06-28T04:46:50.331Z,6.30
2018-06-28T04:47:50.312Z,7.10
2018-06-28T04:48:50.311Z,6.10
2018-06-28T04:49:50.333Z,3.90
2018-06-28T04:50:50.279Z,5.70
2018-06-28T04:51:50.261Z,5.20
2018-06-28T04:52:50.286Z,4.20
2018-06-28T04:53:50.255Z,6.30
2018-06-28T04:54:50.263Z,8.20
2018-06-28T04:55:50.222Z,6.90
2018-06-28T04:56:50.665Z,8.80
2018-06-28T04:57:50.204Z,6.50
2018-06-28T04:58:50.209Z,5.30
2018-06-28T04:59:50.192Z,5.80
2018-06-28T05:00:50.155Z,6.10
2018-06-28T05:01:50.142Z,6.40
2018-06-28T05:02:50.152Z,5.40
2018-06-28T05:03:50.122Z,5.60
2018-06-28T05:04:50.110Z,7.50
2018-06-28T05:05:50.099Z,4.30
2018-06-28T05:06:50.103Z,5.00
2018-06-28T05:07:50.072Z,4.30
2018-06-28T05:08:50.064Z,5.60
2018-06-28T05:09:50.049Z,6.30
2018-06-28T05:10:50.052Z,4.90
2018-06-28T05:11:50.045Z,5.70
2018-06-28T05:12:50.021Z,6.30
2018-06-28T05:13:50.006Z,7.30
2018-06-28T05:14:50.006Z,7.10
2018-06-28T05:15:49.981Z,5.10
2018-06-28T05:16:50.004Z,6.30
2018-06-28T05:17:49.962Z,7.00
2018-06-28T05:18:49.955Z,4.70
2018-06-28T05:19:49.944Z,6.40
2018-06-28T05:20:49.937Z,7.40
2018-06-28T05:21:49.940Z,6.20
2018-06-28T05:22:49.904Z,6.00
2018-06-28T05:23:49.899Z,6.20
2018-06-28T05:24:49.898Z,7.10
2018-06-28T05:25:49.886Z,5.00
2018-06-28T05:26:49.866Z,8.50
2018-06-28T05:27:49.888Z,5.60
2018-06-28T05:28:49.840Z,6.20
2018-06-28T05:29:49.831Z,6.60
2018-06-28T05:30:49.821Z,6.10
2018-06-28T05:31:49.809Z,7.30
2018-06-28T05:32:49.805Z,6.10
2018-06-28T05:33:49.800Z,4.30
2018-06-28T05:34:49.785Z,4.40
2018-06-28T05:35:49.761Z,5.70
2018-06-28T05:36:49.755Z,5.30
2018-06-28T05:37:49.745Z,5.40
2018-06-28T05:38:49.752Z,3.80
2018-06-28T05:39:49.719Z,5.20
2018-06-28T05:40:49.711Z,6.40
2018-06-28T05:41:49.698Z,4.60
2018-06-28T05:42:49.700Z,6.70
2018-06-28T05:43:49.678Z,4.20
2018-06-28T05:45:10.688Z,4.80
2018-06-28T05:45:49.653Z,3.20
2018-06-28T05:46:49.642Z,5.00
2018-06-28T05:47:49.639Z,5.50
2018-06-28T05:48:49.639Z,6.10
2018-06-28T05:49:49.629Z,5.40
2018-06-28T05:50:49.613Z,5.60
2018-06-28T05:51:49.607Z,3.80
2018-06-28T05:52:49.599Z,3.80
2018-06-28T05:53:49.572Z,4.00
2018-06-28T05:54:49.560Z,4.70
2018-06-28T05:55:49.564Z,4.30
2018-06-28T05:56:49.547Z,4.30
2018-06-28T05:57:49.527Z,3.80
2018-06-28T05:58:49.514Z,4.70
2018-06-28T05:59:49.515Z,8.60
2018-06-28T06:00:49.527Z,3.80
2018-06-28T06:01:49.484Z,6.70
2018-06-28T06:02:49.518Z,5.90
2018-06-28T06:03:49.460Z,4.20
2018-06-28T06:04:49.451Z,4.70
2018-06-28T06:05:49.440Z,6.10
2018-06-28T06:06:49.446Z,4.10
2018-06-28T06:07:49.413Z,4.20
2018-06-28T06:08:49.408Z,3.90
2018-06-28T06:09:49.394Z,3.90
2018-06-28T06:10:49.388Z,4.60
2018-06-28T06:11:49.388Z,5.20
2018-06-28T06:12:49.392Z,6.00
2018-06-28T06:13:49.352Z,4.00
2018-06-28T06:14:49.342Z,4.00
2018-06-28T06:15:49.336Z,4.60
2018-06-28T06:16:49.357Z,4.00
2018-06-28T06:17:49.313Z,5.90
2018-06-28T06:18:49.300Z,4.10
2018-06-28T06:19:49.292Z,3.30
2018-06-28T06:20:49.291Z,3.20
2018-06-28T06:21:49.269Z,4.80
2018-06-28T06:22:49.277Z,4.20
2018-06-28T06:23:49.249Z,3.30
2018-06-28T06:24:49.235Z,4.30
2018-06-28T06:25:49.230Z,7.80
2018-06-28T06:26:49.210Z,4.80
2018-06-28T06:27:49.228Z,4.40
2018-06-28T06:28:49.189Z,3.80
2018-06-28T06:29:49.204Z,4.90
2018-06-28T06:30:49.181Z,4.80
2018-06-28T06:31:49.179Z,4.10
2018-06-28T06:32:49.149Z,4.00
2018-06-28T06:33:49.144Z,3.60
2018-06-28T06:34:49.133Z,4.10
2018-06-28T06:35:49.127Z,4.90
2018-06-28T06:36:49.134Z,5.90
2018-06-28T06:37:49.121Z,3.40
2018-06-28T06:38:49.085Z,3.60
2018-06-28T06:39:49.076Z,3.40
2018-06-28T06:40:49.089Z,3.90
2018-06-28T06:41:49.064Z,3.80
2018-06-28T06:42:49.045Z,3.80
2018-06-28T06:44:10.052Z,4.90
2018-06-28T06:44:49.028Z,3.30
2018-06-28T06:45:49.015Z,3.10
2018-06-28T06:46:49.004Z,5.90
2018-06-28T06:47:49.009Z,4.10
2018-06-28T06:48:49.015Z,4.80
2018-06-28T06:49:56.340Z,3.70
2018-06-28T06:50:48.974Z,3.60
2018-06-28T06:51:48.958Z,4.70
2018-06-28T06:52:48.944Z,2.90
2018-06-28T06:53:48.960Z,3.30
2018-06-28T06:54:48.925Z,3.10
2018-06-28T06:55:48.910Z,4.40
2018-06-28T06:56:48.899Z,2.90
2018-06-28T06:57:49.646Z,2.50
2018-06-28T06:58:48.894Z,3.00
2018-06-28T06:59:48.881Z,4.20
2018-06-28T07:00:48.865Z,3.10
2018-06-28T07:01:48.849Z,3.40
2018-06-28T07:02:48.845Z,4.00
2018-06-28T07:03:49.605Z,2.70
2018-06-28T07:04:48.819Z,3.40
2018-06-28T07:05:48.816Z,4.30
2018-06-28T07:06:48.803Z,2.30
2018-06-28T07:07:48.792Z,4.00
2018-06-28T07:08:48.794Z,3.90
2018-06-28T07:09:48.787Z,3.40
2018-06-28T07:10:48.761Z,4.00
2018-06-28T07:11:48.747Z,2.80
2018-06-28T07:12:48.740Z,2.90
2018-06-28T07:13:48.761Z,2.60
2018-06-28T07:14:48.718Z,2.60
2018-06-28T07:15:48.701Z,3.00
2018-06-28T07:16:50.619Z,4.30
2018-06-28T07:17:49.620Z,3.80
2018-06-28T07:18:49.182Z,4.10
2018-06-28T07:19:51.202Z,4.70
2018-06-28T07:20:48.654Z,4.00
2018-06-28T07:21:48.647Z,3.00
2018-06-28T07:22:48.712Z,2.40
2018-06-28T07:23:48.624Z,2.80
2018-06-28T07:24:48.632Z,4.30
2018-06-28T07:25:48.609Z,3.80
2018-06-28T07:26:48.597Z,6.70
2018-06-28T07:27:48.596Z,7.90
2018-06-28T07:28:48.574Z,4.40
2018-06-28T07:29:48.652Z,5.30
2018-06-28T07:30:48.565Z,3.30
2018-06-28T07:31:48.548Z,6.20
2018-06-28T07:32:48.554Z,4.40
2018-06-28T07:33:48.528Z,2.60
2018-06-28T07:34:48.530Z,4.20
2018-06-28T07:35:48.524Z,5.70
2018-06-28T07:36:49.154Z,3.50
2018-06-28T07:37:48.488Z,4.50
2018-06-28T07:38:48.485Z,3.80
2018-06-28T07:39:48.468Z,2.90
2018-06-28T07:40:48.475Z,3.80
2018-06-28T07:41:48.462Z,4.50
2018-06-28T07:42:48.454Z,2.30
2018-06-28T07:43:48.432Z,2.80
2018-06-28T07:44:48.426Z,2.70
2018-06-28T07:45:48.440Z,4.50
2018-06-28T07:46:48.471Z,2.50
2018-06-28T07:47:48.389Z,2.30
2018-06-28T07:48:48.409Z,5.00
2018-06-28T07:49:48.368Z,4.50
2018-06-28T07:50:48.382Z,2.40
2018-06-28T07:51:48.370Z,3.60
2018-06-28T07:52:48.352Z,3.50
2018-06-28T07:53:48.345Z,2.70
2018-06-28T07:54:48.340Z,2.60
2018-06-28T07:55:48.319Z,3.70
2018-06-28T07:56:48.325Z,2.80
2018-06-28T07:57:48.321Z,3.00
2018-06-28T07:58:48.288Z,4.80
2018-06-28T07:59:50.125Z,3.00
2018-06-28T08:00:48.286Z,2.90
2018-06-28T08:02:09.277Z,2.40
2018-06-28T08:02:48.300Z,2.70
2018-06-28T08:03:48.242Z,2.10
2018-06-28T08:04:48.233Z,2.60
2018-06-28T08:05:48.249Z,3.90
2018-06-28T08:06:48.215Z,3.40
2018-06-28T08:07:48.204Z,4.20
2018-06-28T08:08:48.195Z,5.60
2018-06-28T08:09:48.204Z,4.60
2018-06-28T08:10:48.186Z,3.70
2018-06-28T08:11:48.188Z,3.10
2018-06-28T08:12:48.179Z,3.60
2018-06-28T08:13:48.150Z,2.30
2018-06-28T08:14:48.141Z,1.90
2018-06-28T08:15:48.629Z,3.60
2018-06-28T08:16:48.140Z,4.00
2018-06-28T08:17:48.111Z,3.20
2018-06-28T08:18:48.100Z,3.40
2018-06-28T08:19:48.090Z,2.40
2018-06-28T08:20:48.099Z,3.90
2018-06-28T08:21:48.072Z,3.20
2018-06-28T08:22:48.097Z,2.30
2018-06-28T08:23:48.058Z,3.60
2018-06-28T08:24:48.049Z,2.50
2018-06-28T08:25:48.299Z,2.90
2018-06-28T08:26:48.120Z,2.80
2018-06-28T08:27:48.036Z,3.80
2018-06-28T08:28:48.019Z,5.50
2018-06-28T08:29:48.672Z,2.50
2018-06-28T08:30:48.032Z,2.50
2018-06-28T08:31:47.990Z,3.70
2018-06-28T08:32:47.977Z,3.30
2018-06-28T08:33:47.987Z,2.20
2018-06-28T08:34:47.967Z,2.10
2018-06-28T08:35:48.741Z,4.90
2018-06-28T08:36:47.977Z,2.70
2018-06-28T08:37:47.961Z,3.10
2018-06-28T08:38:47.926Z,3.00
2018-06-28T08:39:47.911Z,4.30
2018-06-28T08:40:47.922Z,3.20
2018-06-28T08:41:47.893Z,3.20
2018-06-28T08:42:47.911Z,3.90
2018-06-28T08:43:47.891Z,3.90
2018-06-28T08:44:47.875Z,2.90
2018-06-28T08:45:48.137Z,3.40
2018-06-28T08:46:47.857Z,3.10
2018-06-28T08:47:47.842Z,2.10
2018-06-28T08:48:47.855Z,5.80
2018-06-28T08:49:47.839Z,2.30
2018-06-28T08:50:47.830Z,3.20
2018-06-28T08:51:47.810Z,3.30
2018-06-28T08:52:47.804Z,2.50
2018-06-28T08:53:47.812Z,4.40
2018-06-28T08:54:47.791Z,3.40
2018-06-28T08:55:47.774Z,2.00
2018-06-28T08:56:47.766Z,2.80
2018-06-28T08:57:47.836Z,3.40
2018-06-28T08:58:47.807Z,2.10
2018-06-28T08:59:47.742Z,2.80
2018-06-28T09:00:47.739Z,2.90
2018-06-28T09:01:47.754Z,2.10
2018-06-28T09:02:47.721Z,2.30
2018-06-28T09:03:47.716Z,2.30
2018-06-28T09:04:47.727Z,2.20
2018-06-28T09:05:47.708Z,2.10
2018-06-28T09:06:47.688Z,2.20
2018-06-28T09:07:47.679Z,2.20
2018-06-28T09:08:47.672Z,3.40
2018-06-28T09:09:48.147Z,2.90
2018-06-28T09:10:47.672Z,4.50
2018-06-28T09:11:47.659Z,2.70
2018-06-28T09:12:47.690Z,2.20
2018-06-28T09:13:47.653Z,3.90
2018-06-28T09:14:47.636Z,3.50
2018-06-28T09:15:47.630Z,2.60
2018-06-28T09:16:47.615Z,3.60
2018-06-28T09:17:47.631Z,3.40
2018-06-28T09:18:47.590Z,2.80
2018-06-28T09:19:47.583Z,5.90
2018-06-28T09:20:47.596Z,3.20
2018-06-28T09:21:47.571Z,1.90
2018-06-28T09:22:47.632Z,2.70
2018-06-28T09:23:47.568Z,3.10
2018-06-28T09:24:47.551Z,4.70
2018-06-28T09:25:47.559Z,2.30
2018-06-28T09:26:47.541Z,5.20
2018-06-28T09:27:47.532Z,2.70
2018-06-28T09:28:47.526Z,2.10
2018-06-28T09:29:47.523Z,4.00
2018-06-28T09:30:47.528Z,3.40
2018-06-28T09:31:47.577Z,6.00
2018-06-28T09:32:47.532Z,6.20
2018-06-28T09:33:47.504Z,6.60
2018-06-28T09:34:47.504Z,5.30
2018-06-28T09:35:47.556Z,4.90
2018-06-28T09:36:47.506Z,3.60
2018-06-28T09:37:47.495Z,3.50
2018-06-28T09:38:47.494Z,4.60
2018-06-28T09:39:47.481Z,4.70
2018-06-28T09:40:47.484Z,7.90
2018-06-28T09:41:47.498Z,3.80
2018-06-28T09:42:47.493Z,4.20
2018-06-28T09:43:47.475Z,3.30
2018-06-28T09:44:48.161Z,4.00
2018-06-28T09:45:47.482Z,6.80
2018-06-28T09:46:47.491Z,9.70
2018-06-28T09:47:47.469Z,4.20
2018-06-28T09:48:48.229Z,4.50
2018-06-28T09:49:47.467Z,2.30
2018-06-28T09:50:48.165Z,8.40
2018-06-28T09:51:47.485Z,4.80
2018-06-28T09:52:47.482Z,21.50
2018-06-28T09:53:47.475Z,4.80
2018-06-28T09:54:47.509Z,5.70
2018-06-28T09:55:47.458Z,3.90
2018-06-28T09:56:47.471Z,4.00
2018-06-28T09:57:47.473Z,3.00
2018-06-28T09:58:47.465Z,2.80
2018-06-28T09:59:47.468Z,4.40
2018-06-28T10:00:47.460Z,3.80
2018-06-28T10:01:47.459Z,3.30
2018-06-28T10:02:47.462Z,2.80
2018-06-28T10:03:47.479Z,5.30
2018-06-28T10:04:47.460Z,4.90
2018-06-28T10:05:47.466Z,3.00
2018-06-28T10:06:47.500Z,2.60
2018-06-28T10:07:47.479Z,2.60
2018-06-28T10:08:47.485Z,4.60
2018-06-28T10:09:47.470Z,3.80
2018-06-28T10:10:47.468Z,2.80
2018-06-28T10:11:47.469Z,2.90
2018-06-28T10:12:47.482Z,3.50
2018-06-28T10:13:47.485Z,3.40
2018-06-28T10:14:47.553Z,5.40
2018-06-28T10:15:47.504Z,11.80
2018-06-28T10:16:47.475Z,10.90
2018-06-28T10:17:47.473Z,20.90
2018-06-28T10:18:47.489Z,34.90
2018-06-28T10:19:47.475Z,25.80
2018-06-28T10:20:47.473Z,29.30
2018-06-28T10:21:47.469Z,13.20
2018-06-28T10:22:47.475Z,14.00
2018-06-28T10:23:47.485Z,13.80
2018-06-28T10:24:47.471Z,10.40
2018-06-28T10:25:47.475Z,3.30
2018-06-28T10:26:47.482Z,3.90
2018-06-28T10:27:47.479Z,3.40
2018-06-28T10:28:47.495Z,4.10
2018-06-28T10:29:47.484Z,3.00
2018-06-28T10:30:47.488Z,4.70
2018-06-28T10:31:47.484Z,5.60
2018-06-28T10:32:47.496Z,2.10
2018-06-28T10:33:47.488Z,2.20
2018-06-28T10:34:47.504Z,2.50
2018-06-28T10:35:47.504Z,3.40
2018-06-28T10:36:47.490Z,2.30
2018-06-28T10:37:47.496Z,3.50
2018-06-28T10:38:47.493Z,2.90
2018-06-28T10:39:47.504Z,3.40
2018-06-28T10:40:47.514Z,2.10
2018-06-28T10:41:47.501Z,3.30
2018-06-28T10:42:47.512Z,3.20
2018-06-28T10:43:47.604Z,3.00
2018-06-28T10:44:47.499Z,2.80
2018-06-28T10:45:47.520Z,3.30
2018-06-28T10:46:47.511Z,3.90
2018-06-28T10:47:47.506Z,3.50
2018-06-28T10:48:47.509Z,2.20
2018-06-28T10:49:47.641Z,2.90
2018-06-28T10:50:47.534Z,3.30
2018-06-28T10:51:47.515Z,3.20
2018-06-28T10:52:47.524Z,2.90
2018-06-28T10:53:47.514Z,4.40
2018-06-28T10:54:47.531Z,2.10
2018-06-28T10:55:47.523Z,3.00
2018-06-28T10:56:47.549Z,2.90
2018-06-28T10:57:47.530Z,2.20
2018-06-28T10:58:47.528Z,4.70
2018-06-28T10:59:47.550Z,3.30
2018-06-28T11:00:47.550Z,3.60
2018-06-28T11:01:47.593Z,3.60
2018-06-28T11:02:47.531Z,4.90
2018-06-28T11:03:47.549Z,2.70
2018-06-28T11:04:47.534Z,2.60
2018-06-28T11:05:47.549Z,3.20
2018-06-28T11:06:47.543Z,2.50
2018-06-28T11:07:47.560Z,2.70
2018-06-28T11:08:47.568Z,1.70
2018-06-28T11:09:47.592Z,3.10
2018-06-28T11:10:47.552Z,2.00
2018-06-28T11:11:47.557Z,2.20
2018-06-28T11:12:47.564Z,2.40
2018-06-28T11:13:47.566Z,2.30
2018-06-28T11:14:47.560Z,6.20
2018-06-28T11:15:47.614Z,12.20
2018-06-28T11:16:47.566Z,9.70
2018-06-28T11:17:47.566Z,9.80
2018-06-28T11:18:47.586Z,5.90
2018-06-28T11:19:47.573Z,3.90
2018-06-28T11:20:47.579Z,4.10
2018-06-28T11:21:47.597Z,2.10
2018-06-28T11:22:47.583Z,4.20
2018-06-28T11:23:47.602Z,2.10
2018-06-28T11:24:47.586Z,4.90
2018-06-28T11:25:47.595Z,2.90
2018-06-28T11:26:47.590Z,4.30
2018-06-28T11:27:47.595Z,2.40
2018-06-28T11:28:47.659Z,3.40
2018-06-28T11:29:47.650Z,3.70
2018-06-28T11:30:47.601Z,2.60
2018-06-28T11:31:47.614Z,4.10
2018-06-28T11:32:47.608Z,2.80
2018-06-28T11:33:47.603Z,3.10
2018-06-28T11:34:47.612Z,2.30
2018-06-28T11:35:47.615Z,1.70
2018-06-28T11:36:47.634Z,3.10
2018-06-28T11:37:47.614Z,2.20
2018-06-28T11:38:47.620Z,4.60
2018-06-28T11:39:49.943Z,2.00
2018-06-28T11:40:48.262Z,3.40
2018-06-28T11:41:47.626Z,1.70
2018-06-28T11:42:47.637Z,2.00
2018-06-28T11:43:47.640Z,2.60
2018-06-28T11:44:47.655Z,2.30
2018-06-28T11:45:47.643Z,2.00
2018-06-28T11:46:47.633Z,7.50
2018-06-28T11:47:47.665Z,11.20
2018-06-28T11:48:47.665Z,9.10
2018-06-28T11:49:47.655Z,3.70
2018-06-28T11:50:47.642Z,2.70
2018-06-28T11:51:47.646Z,3.40
2018-06-28T11:52:47.646Z,4.70
2018-06-28T11:53:47.665Z,3.50
2018-06-28T11:54:47.650Z,2.50
2018-06-28T11:55:47.684Z,2.40
2018-06-28T11:56:47.662Z,2.10
2018-06-28T11:57:47.662Z,4.20
2018-06-28T11:58:47.675Z,4.10
2018-06-28T11:59:47.661Z,2.90
2018-06-28T12:00:47.679Z,2.00
2018-06-28T12:01:47.672Z,3.90
2018-06-28T12:02:47.678Z,5.20
2018-06-28T12:03:47.665Z,2.50
2018-06-28T12:04:47.688Z,2.30
2018-06-28T12:05:47.683Z,4.70
2018-06-28T12:06:47.678Z,4.50
2018-06-28T12:07:47.672Z,2.30
2018-06-28T12:08:47.675Z,2.00
2018-06-28T12:09:47.694Z,2.20
2018-06-28T12:10:47.685Z,3.80
2018-06-28T12:11:47.693Z,4.30
2018-06-28T12:12:47.679Z,5.70
2018-06-28T12:13:47.868Z,3.20
2018-06-28T12:14:47.682Z,2.60
2018-06-28T12:15:47.686Z,2.90
2018-06-28T12:16:47.712Z,2.60
2018-06-28T12:17:47.696Z,2.40
2018-06-28T12:18:47.711Z,3.00
2018-06-28T12:19:47.710Z,3.70
2018-06-28T12:20:47.717Z,2.70
2018-06-28T12:21:47.701Z,3.00
2018-06-28T12:22:47.736Z,2.40
2018-06-28T12:23:47.707Z,2.40
2018-06-28T12:24:47.707Z,3.60
2018-06-28T12:25:47.708Z,2.70
2018-06-28T12:26:47.711Z,2.40
2018-06-28T12:27:47.715Z,2.70
2018-06-28T12:28:47.724Z,2.30
2018-06-28T12:29:47.746Z,3.00
2018-06-28T12:30:47.713Z,2.90
2018-06-28T12:31:47.725Z,2.40
2018-06-28T12:32:47.735Z,2.20
2018-06-28T12:33:47.725Z,17.00
2018-06-28T12:34:47.735Z,10.20
2018-06-28T12:35:47.717Z,2.30
2018-06-28T12:36:47.727Z,2.50
2018-06-28T12:37:47.741Z,3.80
2018-06-28T12:38:47.746Z,4.70
2018-06-28T12:39:47.727Z,3.30
2018-06-28T12:40:47.727Z,2.20
2018-06-28T12:41:47.727Z,3.10
2018-06-28T12:42:47.769Z,4.00
2018-06-28T12:43:47.746Z,2.40
2018-06-28T12:44:47.730Z,2.50
2018-06-28T12:45:47.746Z,2.70
2018-06-28T12:46:47.736Z,2.60
2018-06-28T12:47:47.749Z,1.90
2018-06-28T12:48:47.738Z,2.70
2018-06-28T12:49:47.747Z,3.10
2018-06-28T12:50:47.752Z,2.20
2018-06-28T12:51:47.741Z,1.90
2018-06-28T12:52:47.745Z,2.90
2018-06-28T12:53:47.750Z,2.20
2018-06-28T12:54:48.717Z,3.80
2018-06-28T12:55:47.766Z,3.00
2018-06-28T12:56:47.751Z,2.30
2018-06-28T12:57:47.756Z,2.60
2018-06-28T12:58:47.769Z,2.00
2018-06-28T12:59:47.820Z,4.90
2018-06-28T13:00:47.759Z,3.40
2018-06-28T13:01:47.760Z,3.70
2018-06-28T13:02:47.761Z,3.00
2018-06-28T13:03:47.761Z,3.70
2018-06-28T13:04:49.718Z,3.70
2018-06-28T13:05:47.763Z,1.80
2018-06-28T13:06:47.766Z,1.80
2018-06-28T13:07:47.764Z,8.00
2018-06-28T13:08:47.771Z,3.30
2018-06-28T13:09:47.786Z,2.00
2018-06-28T13:10:47.767Z,4.10
2018-06-28T13:11:47.771Z,1.80
2018-06-28T13:12:47.770Z,2.80
2018-06-28T13:13:47.770Z,4.60
2018-06-28T13:14:47.786Z,2.10
2018-06-28T13:15:47.765Z,2.30
2018-06-28T13:16:47.771Z,3.00
2018-06-28T13:17:47.769Z,4.00